createdAt,value
2023-02-11T00:00:41.576Z,101531.69
2023-02-11T00:02:46.135Z,101526.97
2023-02-11T00:04:49.206Z,101529.59
2023-02-11T00:06:50.615Z,101526.84
2023-02-11T00:08:52.177Z,101521.59
2023-02-11T00:10:55.333Z,101519.94
2023-02-11T00:12:56.759Z,101506.59
2023-02-11T00:14:58.149Z,101503.56
2023-02-11T00:16:59.646Z,101502.34
2023-02-11T00:19:02.369Z,101501.34
2023-02-11T00:21:18.068Z,101503.44
2023-02-11T00:23:19.467Z,101489.94
2023-02-11T00:25:20.953Z,101485.97
2023-02-11T00:27:22.437Z,101482.50
2023-02-11T00:29:23.928Z,101475.34
2023-02-11T00:31:25.884Z,101476.84
2023-02-11T00:33:27.368Z,101483.47
2023-02-11T00:35:28.970Z,101484.47
2023-02-11T00:37:30.364Z,101490.25
2023-02-11T00:39:31.926Z,101494.66
2023-02-11T00:41:33.769Z,101486.91
2023-02-11T00:43:35.834Z,101492.41
2023-02-11T00:45:37.274Z,101494.22
2023-02-11T00:47:38.687Z,101496.84
2023-02-11T00:49:40.387Z,101505.09
2023-02-11T00:51:42.049Z,101507.88
2023-02-11T00:53:43.536Z,101496.56
2023-02-11T00:55:44.931Z,101491.69
2023-02-11T00:57:46.385Z,101485.50
2023-02-11T00:59:47.830Z,101490.59
2023-02-11T01:01:49.290Z,101482.44
2023-02-11T01:03:51.058Z,101476.50
2023-02-11T01:05:53.027Z,101474.72
2023-02-11T01:07:54.512Z,101479.66
2023-02-11T01:09:56.279Z,101469.03
2023-02-11T01:11:57.670Z,101472.50
2023-02-11T01:13:59.113Z,101474.94
2023-02-11T01:16:01.011Z,101471.66
2023-02-11T01:18:02.432Z,101476.63
2023-02-11T01:20:07.966Z,101480.72
2023-02-11T01:22:09.463Z,101482.25
2023-02-11T01:24:10.831Z,101477.97
2023-02-11T01:26:12.463Z,101492.88
2023-02-11T01:28:23.367Z,101482.41
2023-02-11T01:30:24.793Z,101486.69
2023-02-11T01:32:26.271Z,101483.88
2023-02-11T01:34:28.417Z,101487.22
2023-02-11T01:36:29.847Z,101486.25
2023-02-11T01:38:32.364Z,101495.75
2023-02-11T01:40:34.289Z,101498.53
2023-02-11T01:42:35.770Z,101493.13
2023-02-11T01:44:40.010Z,101505.41
2023-02-11T01:46:41.535Z,101494.91
2023-02-11T01:48:50.651Z,101490.38
2023-02-11T01:50:58.840Z,101485.41
2023-02-11T01:53:20.711Z,101485.25
2023-02-11T01:55:41.129Z,101484.16
2023-02-11T01:57:47.271Z,101473.81
2023-02-11T01:59:51.649Z,101466.59
2023-02-11T02:01:58.463Z,101471.03
2023-02-11T02:04:03.159Z,101478.91
2023-02-11T02:06:10.903Z,101484.97
2023-02-11T02:08:40.836Z,101480.84
2023-02-11T02:10:46.134Z,101472.00
2023-02-11T02:12:47.662Z,101477.25
2023-02-11T02:14:49.065Z,101475.16
2023-02-11T02:16:50.532Z,101472.66
2023-02-11T02:19:39.456Z,101464.81
2023-02-11T02:21:59.365Z,101462.34
2023-02-11T02:24:15.927Z,101451.84
2023-02-11T02:27:02.006Z,101429.75
2023-02-11T02:29:23.262Z,101432.66
2023-02-11T02:31:50.798Z,101431.31
2023-02-11T02:34:11.388Z,101440.66
2023-02-11T02:36:22.424Z,101438.88
2023-02-11T02:38:30.370Z,101439.41
2023-02-11T02:40:54.514Z,101432.50
2023-02-11T02:42:57.731Z,101432.22
2023-02-11T02:44:59.225Z,101436.13
2023-02-11T02:47:00.685Z,101438.88
2023-02-11T02:49:06.189Z,101444.81
2023-02-11T02:51:57.845Z,101430.16
2023-02-11T02:54:23.422Z,101432.50
2023-02-11T02:56:28.884Z,101429.06
2023-02-11T02:58:47.479Z,101433.19
2023-02-11T03:01:21.396Z,101424.63
2023-02-11T03:03:48.549Z,101425.91
2023-02-11T03:06:00.036Z,101426.47
2023-02-11T03:08:13.805Z,101428.38
2023-02-11T03:10:18.883Z,101420.69
2023-02-11T03:12:22.132Z,101426.06
2023-02-11T03:14:26.754Z,101423.13
2023-02-11T03:16:30.097Z,101428.38
2023-02-11T03:18:35.218Z,101435.28
2023-02-11T03:20:41.864Z,101436.25
2023-02-11T03:22:55.604Z,101434.59
2023-02-11T03:24:57.158Z,101434.75
2023-02-11T03:27:04.693Z,101430.16
2023-02-11T03:29:33.314Z,101440.66
2023-02-11T03:31:47.640Z,101440.00
2023-02-11T03:34:08.741Z,101439.84
2023-02-11T03:36:15.795Z,101439.16
2023-02-11T03:38:26.239Z,101438.34
2023-02-11T03:40:32.499Z,101446.22
2023-02-11T03:42:47.953Z,101441.78
2023-02-11T03:44:55.030Z,101432.25
2023-02-11T03:46:56.517Z,101439.16
2023-02-11T03:49:04.974Z,101429.63
2023-02-11T03:51:09.485Z,101435.06
2023-02-11T03:53:13.008Z,101427.19
2023-02-11T03:55:18.365Z,101428.00
2023-02-11T03:57:19.823Z,101425.53
2023-02-11T03:59:21.426Z,101427.47
2023-02-11T04:01:22.954Z,101421.94
2023-02-11T04:03:24.394Z,101424.69
2023-02-11T04:05:25.894Z,101433.53
2023-02-11T04:07:27.543Z,101423.34
2023-02-11T04:09:28.887Z,101427.31
2023-02-11T04:11:30.319Z,101428.28
2023-02-11T04:13:31.756Z,101422.50
2023-02-11T04:15:33.280Z,101420.56
2023-02-11T04:17:34.840Z,101419.34
2023-02-11T04:19:36.357Z,101416.88
2023-02-11T04:21:37.743Z,101408.84
2023-02-11T04:23:39.126Z,101409.03
2023-02-11T04:25:40.515Z,101404.22
2023-02-11T04:27:41.985Z,101407.66
2023-02-11T04:29:43.372Z,101413.72
2023-02-11T04:31:45.020Z,101416.34
2023-02-11T04:33:46.436Z,101417.19
2023-02-11T04:35:48.326Z,101435.81
2023-02-11T04:37:49.847Z,101444.78
2023-02-11T04:39:51.259Z,101442.59
2023-02-11T04:41:52.609Z,101442.47
2023-02-11T04:43:54.009Z,101440.50
2023-02-11T04:45:58.855Z,101444.13
2023-02-11T04:48:02.757Z,101444.25
2023-02-11T04:50:04.885Z,101438.19
2023-02-11T04:52:06.318Z,101441.25
2023-02-11T04:54:08.481Z,101432.94
2023-02-11T04:56:09.885Z,101431.44
2023-02-11T04:58:11.221Z,101430.38
2023-02-11T05:00:13.435Z,101428.41
2023-02-11T05:02:14.850Z,101435.59
2023-02-11T05:04:17.212Z,101436.03
2023-02-11T05:06:18.764Z,101434.78
2023-02-11T05:08:20.117Z,101431.88
2023-02-11T05:10:21.601Z,101425.78
2023-02-11T05:12:23.085Z,101419.06
2023-02-11T05:14:24.468Z,101425.00
2023-02-11T05:16:25.985Z,101429.25
2023-02-11T05:18:27.401Z,101427.63
2023-02-11T05:20:28.841Z,101425.56
2023-02-11T05:22:30.387Z,101430.13
2023-02-11T05:24:32.446Z,101424.28
2023-02-11T05:26:33.887Z,101423.47
2023-02-11T05:28:36.130Z,101416.72
2023-02-11T05:30:37.587Z,101423.47
2023-02-11T05:35:05.572Z,101429.84
2023-02-11T05:37:06.989Z,101435.91
2023-02-11T05:39:08.465Z,101425.56
2023-02-11T05:41:10.855Z,101436.03
2023-02-11T05:43:12.229Z,101435.91
2023-02-11T05:45:13.645Z,101438.13
2023-02-11T05:47:15.024Z,101434.38
2023-02-11T05:49:17.454Z,101429.00
2023-02-11T05:51:18.908Z,101424.44
2023-02-11T05:53:20.348Z,101421.97
2023-02-11T05:55:21.740Z,101426.50
2023-02-11T05:57:23.262Z,101428.72
2023-02-11T05:59:24.717Z,101431.50
2023-02-11T06:01:26.574Z,101439.34
2023-02-11T06:03:28.177Z,101441.81
2023-02-11T06:05:29.680Z,101442.09
2023-02-11T06:07:31.086Z,101436.88
2023-02-11T06:09:32.451Z,101427.03
2023-02-11T06:11:33.847Z,101430.66
2023-02-11T06:13:36.176Z,101435.06
2023-02-11T06:15:37.644Z,101437.53
2023-02-11T06:17:39.107Z,101422.94
2023-02-11T06:19:40.533Z,101425.41
2023-02-11T06:21:44.289Z,101431.31
2023-02-11T06:23:46.002Z,101424.59
2023-02-11T06:25:47.410Z,101426.09
2023-02-11T06:27:48.813Z,101422.38
2023-02-11T06:29:52.330Z,101424.59
2023-02-11T06:31:53.774Z,101427.75
2023-02-11T06:33:55.236Z,101423.34
2023-02-11T06:35:56.599Z,101430.25
2023-02-11T06:37:57.992Z,101423.03
2023-02-11T06:39:59.382Z,101422.50
2023-02-11T06:42:00.739Z,101423.63
2023-02-11T06:44:02.110Z,101417.41
2023-02-11T06:46:03.626Z,101423.19
2023-02-11T06:48:05.129Z,101421.91
2023-02-11T06:50:08.308Z,101425.66
2023-02-11T06:52:09.697Z,101430.91
2023-02-11T06:54:12.489Z,101433.41
2023-02-11T06:56:17.272Z,101440.28
2023-02-11T06:58:18.623Z,101441.38
2023-02-11T07:00:20.042Z,101435.03
2023-02-11T07:02:21.559Z,101431.75
2023-02-11T07:04:23.055Z,101430.91
2023-02-11T07:06:27.898Z,101434.91
2023-02-11T07:08:29.456Z,101439.19
2023-02-11T07:10:30.856Z,101438.34
2023-02-11T07:12:32.592Z,101440.97
2023-02-11T07:14:34.015Z,101438.34
2023-02-11T07:16:35.511Z,101438.34
2023-02-11T07:18:37.179Z,101436.56
2023-02-11T07:20:38.929Z,101437.09
2023-02-11T07:22:40.296Z,101431.03
2023-02-11T07:24:41.720Z,101443.13
2023-02-11T07:26:43.158Z,101444.13
2023-02-11T07:28:45.079Z,101445.91
2023-02-11T07:30:46.517Z,101449.38
2023-02-11T07:32:48.848Z,101449.91
2023-02-11T07:34:50.222Z,101453.34
2023-02-11T07:36:51.698Z,101462.84
2023-02-11T07:38:53.093Z,101452.66
2023-02-11T07:40:54.490Z,101458.44
2023-02-11T07:42:55.844Z,101452.22
2023-02-11T07:44:57.273Z,101454.56
2023-02-11T07:46:59.513Z,101451.28
2023-02-11T07:49:01.147Z,101456.22
2023-02-11T07:51:10.052Z,101453.91
2023-02-11T07:53:11.442Z,101456.22
2023-02-11T07:55:12.878Z,101459.69
2023-02-11T07:57:14.228Z,101457.72
2023-02-11T07:59:16.038Z,101457.59
2023-02-11T08:01:26.371Z,101461.72
2023-02-11T08:03:27.910Z,101464.75
2023-02-11T08:05:30.323Z,101470.53
2023-02-11T08:07:32.259Z,101461.72
2023-02-11T08:09:34.627Z,101475.50
2023-02-11T08:11:36.360Z,101476.31
2023-02-11T08:13:38.546Z,101470.09
2023-02-11T08:15:39.935Z,101469.28
2023-02-11T08:17:41.327Z,101469.81
2023-02-11T08:19:42.968Z,101467.88
2023-02-11T08:21:44.880Z,101484.44
2023-02-11T08:23:46.976Z,101483.75
2023-02-11T08:25:48.368Z,101479.34
2023-02-11T08:27:49.845Z,101481.53
2023-02-11T08:29:51.351Z,101480.72
2023-02-11T08:31:52.843Z,101489.94
2023-02-11T08:36:25.846Z,101495.31
2023-02-11T08:38:27.295Z,101501.22
2023-02-11T08:40:28.730Z,101498.34
2023-02-11T08:42:30.247Z,101508.53
2023-02-11T08:44:31.637Z,101505.91
2023-02-11T08:46:33.205Z,101505.22
2023-02-11T08:48:34.981Z,101512.13
2023-02-11T08:50:39.099Z,101515.44
2023-02-11T08:52:40.567Z,101507.28
2023-02-11T08:54:41.928Z,101508.91
2023-02-11T08:56:43.785Z,101515.81
2023-02-11T08:58:45.920Z,101513.91
2023-02-11T09:00:48.447Z,101518.97
2023-02-11T09:02:50.121Z,101518.56
2023-02-11T09:04:51.500Z,101522.84
2023-02-11T09:06:52.886Z,101524.34
2023-02-11T09:08:57.190Z,101524.88
2023-02-11T09:10:58.773Z,101525.53
2023-02-11T09:13:00.163Z,101531.91
2023-02-11T09:15:01.794Z,101530.94
2023-02-11T09:17:03.207Z,101534.22
2023-02-11T09:19:05.336Z,101531.19
2023-02-11T09:21:08.803Z,101528.25
2023-02-11T09:23:11.113Z,101531.41
2023-02-11T09:25:12.526Z,101527.97
2023-02-11T09:27:15.809Z,101533.91
2023-02-11T09:29:17.195Z,101528.66
2023-02-11T09:31:21.959Z,101537.88
2023-02-11T09:33:23.501Z,101534.44
2023-02-11T09:35:24.936Z,101531.94
2023-02-11T09:37:26.416Z,101538.97
2023-02-11T09:39:29.184Z,101543.22
2023-02-11T09:41:42.534Z,101544.47
2023-02-11T09:43:47.946Z,101545.00
2023-02-11T09:45:50.171Z,101546.41
2023-02-11T09:47:58.534Z,101552.44
2023-02-11T09:50:15.693Z,101552.25
2023-02-11T09:52:26.138Z,101550.63
2023-02-11T09:54:41.223Z,101563.06
2023-02-11T09:56:42.626Z,101563.91
2023-02-11T09:58:45.060Z,101571.19
2023-02-11T10:01:11.069Z,101561.41
2023-02-11T10:03:21.475Z,101560.00
2023-02-11T10:05:44.529Z,101565.50
2023-02-11T10:08:30.536Z,101560.44
2023-02-11T10:10:57.130Z,101564.53
2023-02-11T10:13:19.800Z,101569.59
2023-02-11T10:15:49.809Z,101572.69
2023-02-11T10:18:19.321Z,101578.72
2023-02-11T10:20:29.605Z,101579.69
2023-02-11T10:22:39.331Z,101585.31
2023-02-11T10:24:48.447Z,101582.22
2023-02-11T10:26:51.888Z,101584.84
2023-02-11T10:28:55.896Z,101582.09
2023-02-11T10:31:00.519Z,101578.19
2023-02-11T10:33:31.355Z,101586.44
2023-02-11T10:35:33.098Z,101586.44
2023-02-11T10:37:34.472Z,101593.22
2023-02-11T10:39:35.840Z,101586.44
2023-02-11T10:41:47.489Z,101594.31
2023-02-11T10:43:50.395Z,101598.28
2023-02-11T10:45:53.553Z,101601.63
2023-02-11T10:47:55.352Z,101598.81
2023-02-11T10:50:03.230Z,101590.19
2023-02-11T10:52:23.678Z,101591.72
2023-02-11T10:54:25.045Z,101590.13
2023-02-11T10:56:28.234Z,101588.78
2023-02-11T10:58:32.567Z,101599.94
2023-02-11T11:00:40.512Z,101608.28
2023-02-11T11:02:44.448Z,101598.16
2023-02-11T11:04:47.452Z,101590.28
2023-02-11T11:06:49.016Z,101592.91
2023-02-11T11:08:51.781Z,101597.72
2023-02-11T11:11:05.586Z,101595.00
2023-02-11T11:13:22.943Z,101587.53
2023-02-11T11:15:29.575Z,101587.28
2023-02-11T11:17:31.097Z,101589.72
2023-02-11T11:19:33.107Z,101595.69
2023-02-11T11:21:36.566Z,101599.78
2023-02-11T11:23:39.726Z,101600.97
2023-02-11T11:25:45.879Z,101599.41
2023-02-11T11:27:52.925Z,101602.44
2023-02-11T11:29:55.935Z,101599.94
2023-02-11T11:32:01.288Z,101609.09
2023-02-11T11:34:28.455Z,101605.94
2023-02-11T11:36:37.560Z,101603.50
2023-02-11T11:38:48.988Z,101605.56
2023-02-11T11:41:20.781Z,101596.22
2023-02-11T11:43:23.454Z,101599.94
2023-02-11T11:45:26.861Z,101600.63
2023-02-11T11:47:44.068Z,101597.25
2023-02-11T11:49:51.493Z,101591.81
2023-02-11T11:52:11.801Z,101598.72
2023-02-11T11:54:17.555Z,101597.69
2023-02-11T11:56:25.080Z,101606.81
2023-02-11T11:58:28.954Z,101601.09
2023-02-11T12:00:51.182Z,101594.56
2023-02-11T12:03:31.708Z,101586.28
2023-02-11T12:05:45.312Z,101587.66
2023-02-11T12:08:11.194Z,101590.13
2023-02-11T12:10:40.045Z,101586.59
2023-02-11T12:12:52.877Z,101579.03
2023-02-11T12:15:19.046Z,101584.50
2023-02-11T12:17:41.612Z,101585.47
2023-02-11T12:20:18.634Z,101591.94
2023-02-11T12:22:45.052Z,101582.84
2023-02-11T12:25:06.207Z,101580.06
2023-02-11T12:27:16.715Z,101573.16
2023-02-11T12:29:55.374Z,101573.00
2023-02-11T12:32:21.310Z,101576.47
2023-02-11T12:34:22.547Z,101571.84
2023-02-11T12:36:41.934Z,101574.81
2023-02-11T12:39:10.305Z,101574.63
2023-02-11T12:41:14.650Z,101577.75
2023-02-11T12:43:22.180Z,101584.44
2023-02-11T12:45:41.957Z,101593.22
2023-02-11T12:48:22.648Z,101589.91
2023-02-11T12:50:34.202Z,101587.28
2023-02-11T12:52:47.168Z,101578.41
2023-02-11T12:54:58.080Z,101579.38
2023-02-11T12:57:21.567Z,101581.50
2023-02-11T13:00:04.987Z,101580.84
2023-02-11T13:02:18.282Z,101585.13
2023-02-11T13:04:28.799Z,101588.72
2023-02-11T13:06:38.662Z,101597.00
2023-02-11T13:08:53.952Z,101587.91
2023-02-11T13:11:02.455Z,101587.13
2023-02-11T13:13:18.418Z,101582.06
2023-02-11T13:15:19.844Z,101574.13
2023-02-11T13:17:41.318Z,101567.06
2023-02-11T13:19:58.111Z,101564.28
2023-02-11T13:22:33.555Z,101566.47
2023-02-11T13:24:55.762Z,101565.94
2023-02-11T13:27:20.518Z,101562.41
2023-02-11T13:30:01.209Z,101562.28
2023-02-11T13:32:11.621Z,101563.59
2023-02-11T13:34:51.730Z,101573.22
2023-02-11T13:36:57.599Z,101582.59
2023-02-11T13:39:02.415Z,101574.63
2023-02-11T13:41:19.349Z,101577.50
2023-02-11T13:43:23.543Z,101570.41
2023-02-11T13:45:28.934Z,101565.81
2023-02-11T13:47:33.475Z,101562.22
2023-02-11T13:49:41.487Z,101572.06
2023-02-11T13:51:43.216Z,101574.56
2023-02-11T13:53:51.438Z,101585.06
2023-02-11T13:56:06.202Z,101585.72
2023-02-11T13:58:07.508Z,101589.50
2023-02-11T14:00:26.933Z,101585.72
2023-02-11T14:02:52.858Z,101591.16
2023-02-11T14:05:29.794Z,101584.88
2023-02-11T14:08:11.305Z,101577.84
2023-02-11T14:10:43.628Z,101582.13
2023-02-11T14:13:05.386Z,101585.91
2023-02-11T14:15:12.794Z,101588.03
2023-02-11T14:17:18.857Z,101587.06
2023-02-11T14:19:43.529Z,101579.19
2023-02-11T14:21:46.695Z,101583.09
2023-02-11T14:23:48.815Z,101587.72
2023-02-11T14:26:38.018Z,101575.41
2023-02-11T14:28:44.689Z,101579.69
2023-02-11T14:30:56.486Z,101584.13
2023-02-11T14:33:23.699Z,101593.16
2023-02-11T14:35:28.065Z,101593.09
2023-02-11T14:37:52.165Z,101589.88
2023-02-11T14:40:30.468Z,101589.50
2023-02-11T14:42:31.947Z,101585.41
2023-02-11T14:44:34.829Z,101585.41
2023-02-11T14:46:36.560Z,101587.38
2023-02-11T14:48:43.107Z,101581.03
2023-02-11T14:50:48.312Z,101579.56
2023-02-11T14:52:51.063Z,101582.53
2023-02-11T14:55:09.070Z,101579.31
2023-02-11T14:57:15.867Z,101580.50
2023-02-11T14:59:19.969Z,101586.28
2023-02-11T15:01:28.521Z,101585.44
2023-02-11T15:03:33.164Z,101591.09
2023-02-11T15:05:34.791Z,101590.56
2023-02-11T15:07:36.179Z,101587.75
2023-02-11T15:09:41.715Z,101585.97
2023-02-11T15:11:46.668Z,101590.56
2023-02-11T15:13:50.301Z,101587.44
2023-02-11T15:15:55.677Z,101589.09
2023-02-11T15:18:01.249Z,101587.75
2023-02-11T15:20:03.190Z,101592.56
2023-02-11T15:22:10.519Z,101596.34
2023-02-11T15:24:31.258Z,101599.78
2023-02-11T15:26:33.080Z,101593.53
2023-02-11T15:28:35.514Z,101597.31
2023-02-11T15:30:36.906Z,101600.47
2023-02-11T15:32:45.065Z,101599.94
2023-02-11T15:34:47.563Z,101603.09
2023-02-11T15:36:48.972Z,101602.59
2023-02-11T15:39:17.984Z,101598.16
2023-02-11T15:41:37.947Z,101593.19
2023-02-11T15:43:51.000Z,101605.38
2023-02-11T15:45:52.331Z,101601.09
2023-02-11T15:47:58.079Z,101608.31
2023-02-11T15:49:59.822Z,101600.72
2023-02-11T15:52:02.713Z,101606.00
2023-02-11T15:54:15.140Z,101615.88
2023-02-11T15:56:19.235Z,101606.97
2023-02-11T15:58:22.696Z,101621.41
2023-02-11T16:00:31.501Z,101621.28
2023-02-11T16:02:36.419Z,101611.06
2023-02-11T16:04:38.044Z,101625.38
2023-02-11T16:06:42.255Z,101632.44
2023-02-11T16:08:59.797Z,101632.59
2023-02-11T16:11:08.496Z,101630.09
2023-02-11T16:13:09.830Z,101628.28
2023-02-11T16:15:30.695Z,101623.34
2023-02-11T16:17:32.136Z,101625.97
2023-02-11T16:19:35.873Z,101627.78
2023-02-11T16:21:45.234Z,101628.91
2023-02-11T16:23:54.202Z,101627.44
2023-02-11T16:26:01.905Z,101636.16
2023-02-11T16:28:03.518Z,101631.88
2023-02-11T16:30:05.955Z,101637.28
2023-02-11T16:32:10.413Z,101635.94
2023-02-11T16:34:29.861Z,101641.88
2023-02-11T16:36:31.209Z,101631.81
2023-02-11T16:38:32.603Z,101639.69
2023-02-11T16:40:33.968Z,101640.84
2023-02-11T16:42:35.387Z,101640.00
2023-02-11T16:44:36.798Z,101639.34
2023-02-11T16:46:38.622Z,101648.88
2023-02-11T16:48:40.115Z,101645.91
2023-02-11T16:50:46.507Z,101651.31
2023-02-11T16:52:48.357Z,101657.84
2023-02-11T16:54:50.058Z,101657.84
2023-02-11T16:56:51.488Z,101662.13
2023-02-11T16:58:52.913Z,101660.78
2023-02-11T17:00:56.888Z,101662.75
2023-02-11T17:02:58.350Z,101659.28
2023-02-11T17:05:02.437Z,101662.75
2023-02-11T17:07:03.845Z,101655.13
2023-02-11T17:09:06.676Z,101658.38
2023-02-11T17:11:08.071Z,101656.44
2023-02-11T17:13:09.469Z,101667.09
2023-02-11T17:15:10.932Z,101659.22
2023-02-11T17:17:12.872Z,101661.84
2023-02-11T17:19:17.084Z,101666.41
2023-02-11T17:21:18.554Z,101661.97
2023-02-11T17:23:19.952Z,101665.09
2023-02-11T17:25:23.359Z,101672.16
2023-02-11T17:27:25.085Z,101675.75
2023-02-11T17:29:27.073Z,101668.81
2023-02-11T17:31:28.500Z,101672.97
2023-02-11T17:33:29.900Z,101674.78
2023-02-11T17:35:31.288Z,101666.19
2023-02-11T17:37:32.820Z,101673.13
2023-02-11T17:39:38.711Z,101682.59
2023-02-11T17:41:40.567Z,101682.44
2023-02-11T17:43:42.606Z,101684.91
2023-02-11T17:45:44.087Z,101685.75
2023-02-11T17:47:46.041Z,101691.44
2023-02-11T17:49:47.381Z,101695.72
2023-02-11T17:51:48.783Z,101691.13
2023-02-11T17:53:50.444Z,101694.75
2023-02-11T17:55:52.081Z,101705.28
2023-02-11T17:57:53.680Z,101703.63
2023-02-11T17:59:55.025Z,101696.88
2023-02-11T18:01:56.406Z,101692.56
2023-02-11T18:03:57.874Z,101696.03
2023-02-11T18:06:01.613Z,101706.03
2023-02-11T18:08:05.413Z,101704.06
2023-02-11T18:10:08.320Z,101711.66
2023-02-11T18:12:10.651Z,101706.56
2023-02-11T18:14:14.042Z,101714.28
2023-02-11T18:16:15.816Z,101708.34
2023-02-11T18:18:17.400Z,101707.69
2023-02-11T18:20:19.781Z,101712.13
2023-02-11T18:22:21.184Z,101713.91
2023-02-11T18:24:22.652Z,101719.47
2023-02-11T18:26:28.139Z,101720.28
2023-02-11T18:28:29.663Z,101723.47
2023-02-11T18:30:31.220Z,101728.84
2023-02-11T18:32:32.675Z,101720.66
2023-02-11T18:34:34.105Z,101717.38
2023-02-11T18:36:36.376Z,101724.13
2023-02-11T18:38:38.149Z,101725.09
2023-02-11T18:40:40.652Z,101728.41
2023-02-11T18:42:42.738Z,101730.22
2023-02-11T18:44:44.272Z,101724.56
2023-02-11T18:46:45.656Z,101725.41
2023-02-11T18:48:47.073Z,101740.88
2023-02-11T18:50:48.735Z,101726.53
2023-02-11T18:52:50.115Z,101738.41
2023-02-11T18:54:52.273Z,101739.38
2023-02-11T18:56:53.696Z,101724.72
2023-02-11T18:58:56.488Z,101730.66
2023-02-11T19:00:57.955Z,101726.88
2023-02-11T19:03:01.316Z,101731.88
2023-02-11T19:05:06.311Z,101731.88
2023-02-11T19:07:07.719Z,101730.22
2023-02-11T19:09:11.204Z,101735.63
2023-02-11T19:11:14.481Z,101745.28
2023-02-11T19:13:15.900Z,101749.28
2023-02-11T19:15:17.300Z,101748.63
2023-02-11T19:17:18.726Z,101754.53
2023-02-11T19:19:22.194Z,101754.72
2023-02-11T19:21:23.579Z,101751.09
2023-02-11T19:23:24.935Z,101757.88
2023-02-11T19:25:26.803Z,101761.59
2023-02-11T19:27:28.204Z,101763.25
2023-02-11T19:29:33.263Z,101766.72
2023-02-11T19:31:34.951Z,101758.00
2023-02-11T19:33:36.875Z,101768.38
2023-02-11T19:35:38.276Z,101765.75
2023-02-11T19:37:39.814Z,101762.44
2023-02-11T19:39:42.673Z,101768.22
2023-02-11T19:41:44.335Z,101763.13
2023-02-11T19:43:47.713Z,101769.34
2023-02-11T19:45:49.203Z,101775.28
2023-02-11T19:47:55.290Z,101774.47
2023-02-11T19:49:56.703Z,101772.13
2023-02-11T19:51:58.394Z,101777.25
2023-02-11T19:54:00.396Z,101780.84
2023-02-11T19:56:03.029Z,101783.47
2023-02-11T19:58:04.472Z,101784.47
2023-02-11T20:00:06.774Z,101787.75
2023-02-11T20:02:10.230Z,101788.44
2023-02-11T20:04:13.124Z,101791.06
2023-02-11T20:06:17.576Z,101796.31
2023-02-11T20:08:18.978Z,101797.31
2023-02-11T20:10:20.323Z,101787.47
2023-02-11T20:12:21.753Z,101792.72
2023-02-11T20:14:23.390Z,101788.59
2023-02-11T20:16:44.662Z,101784.31
2023-02-11T20:18:49.122Z,101786.94
2023-02-11T20:20:50.535Z,101795.53
2023-02-11T20:22:52.420Z,101792.88
2023-02-11T20:24:53.858Z,101786.63
2023-02-11T20:26:55.863Z,101792.59
2023-02-11T20:29:02.100Z,101789.25
2023-02-11T20:31:04.904Z,101793.41
2023-02-11T20:33:06.473Z,101796.31
2023-02-11T20:35:08.585Z,101794.38
2023-02-11T20:37:10.370Z,101790.63
2023-02-11T20:39:16.941Z,101793.25
2023-02-11T20:41:24.669Z,101789.78
2023-02-11T20:43:26.042Z,101793.25
2023-02-11T20:45:27.437Z,101798.50
2023-02-11T20:47:28.808Z,101797.84
2023-02-11T20:49:30.451Z,101806.28
2023-02-11T20:51:34.236Z,101810.69
2023-02-11T20:53:37.731Z,101809.72
2023-02-11T20:55:39.714Z,101799.34
2023-02-11T20:57:41.121Z,101807.22
2023-02-11T20:59:42.609Z,101811.00
2023-02-11T21:01:46.778Z,101816.09
2023-02-11T21:03:58.880Z,101826.47
2023-02-11T21:06:00.795Z,101826.31
2023-02-11T21:08:02.216Z,101828.13
2023-02-11T21:10:04.241Z,101834.19
2023-02-11T21:12:05.986Z,101832.41
2023-02-11T21:14:07.687Z,101832.28
2023-02-11T21:16:13.365Z,101835.72
2023-02-11T21:18:14.799Z,101834.91
2023-02-11T21:20:16.315Z,101832.28
2023-02-11T21:22:17.699Z,101839.31
2023-02-11T21:24:19.144Z,101840.16
2023-02-11T21:26:20.606Z,101827.84
2023-02-11T21:28:26.372Z,101826.19
2023-02-11T21:30:27.813Z,101829.78
2023-02-11T21:32:29.424Z,101827.00
2023-02-11T21:34:30.814Z,101828.69
2023-02-11T21:36:32.349Z,101826.84
2023-02-11T21:38:34.670Z,101826.84
2023-02-11T21:40:36.024Z,101823.78
2023-02-11T21:42:37.439Z,101831.00
2023-02-11T21:44:38.899Z,101831.84
2023-02-11T21:46:40.601Z,101831.13
2023-02-11T21:48:42.488Z,101825.56
2023-02-11T21:50:46.558Z,101822.94
2023-02-11T21:52:48.001Z,101820.47
2023-02-11T21:54:50.438Z,101831.97
2023-02-11T21:56:51.852Z,101832.66
2023-02-11T21:58:54.715Z,101830.16
2023-02-11T22:00:56.185Z,101829.03
2023-02-11T22:02:58.651Z,101830.16
2023-02-11T22:05:00.875Z,101837.09
2023-02-11T22:07:03.411Z,101836.94
2023-02-11T22:09:08.298Z,101837.94
2023-02-11T22:11:12.228Z,101837.75
2023-02-11T22:13:13.635Z,101833.19
2023-02-11T22:15:15.041Z,101847.16
2023-02-11T22:17:16.515Z,101849.78
2023-02-11T22:19:18.764Z,101848.28
2023-02-11T22:21:22.703Z,101853.00
2023-02-11T22:23:24.195Z,101853.53
2023-02-11T22:25:25.596Z,101851.75
2023-02-11T22:27:27.016Z,101856.16
2023-02-11T22:29:28.441Z,101866.25
2023-02-11T22:31:33.043Z,101865.44
2023-02-11T22:33:34.532Z,101869.72
2023-02-11T22:35:35.902Z,101878.44
2023-02-11T22:37:37.393Z,101881.06
2023-02-11T22:39:38.793Z,101875.81
2023-02-11T22:41:41.562Z,101877.63
2023-02-11T22:43:43.864Z,101867.94
2023-02-11T22:45:45.258Z,101869.72
2023-02-11T22:47:46.640Z,101879.84
2023-02-11T22:49:48.135Z,101876.09
2023-02-11T22:51:49.525Z,101884.50
2023-02-11T22:54:02.139Z,101882.72
2023-02-11T22:56:05.655Z,101877.44
2023-02-11T22:58:07.187Z,101877.63
2023-02-11T23:00:09.766Z,101878.44
2023-02-11T23:02:11.284Z,101881.06
2023-02-11T23:04:15.536Z,101889.94
2023-02-11T23:06:17.380Z,101891.06
2023-02-11T23:08:18.775Z,101899.75
2023-02-11T23:10:20.326Z,101904.06
2023-02-11T23:12:21.716Z,101904.34
2023-02-11T23:14:23.375Z,101903.56
2023-02-11T23:16:34.271Z,101901.38
2023-02-11T23:18:38.148Z,101905.97
2023-02-11T23:20:42.131Z,101910.69
2023-02-11T23:22:43.512Z,101909.03
2023-02-11T23:24:44.898Z,101914.28
2023-02-11T23:26:46.319Z,101913.06
2023-02-11T23:28:47.849Z,101913.63
2023-02-11T23:30:49.273Z,101916.25
2023-02-11T23:32:51.690Z,101912.78
2023-02-11T23:34:53.091Z,101912.66
2023-02-11T23:36:54.750Z,101910.03
2023-02-11T23:38:56.342Z,101908.19
2023-02-11T23:40:57.721Z,101914.22
2023-02-11T23:42:59.132Z,101912.25
2023-02-11T23:45:01.404Z,101912.66
2023-02-11T23:47:02.797Z,101904.94
2023-02-11T23:49:04.406Z,101907.13
2023-02-11T23:51:06.600Z,101908.66
2023-02-11T23:53:08.000Z,101915.00
2023-02-11T23:55:09.792Z,101911.72
2023-02-11T23:57:11.167Z,101915.31
2023-02-11T23:59:13.004Z,101917.50
